Terminal Aerodrome Forecast
Issued by NWS Portland, ME

Home | Current Version | Previous Version | Text Only | Print | Product List | Glossary On
Versions: 1 2 3 4 5 6 7 8 9 10 11 12 13 14 15 16 17 18 19 20 21 22 23 24 25 26 27 28 29 30 31 32 33 34
495
FTUS41 KGYX 240340 AAC
TAFPWM
TAF AMD
KPWM 240340Z 2404/2424 04014KT P6SM SCT024 BKN030 OVC090
      WS020/09030KT
     FM240500 05014KT 1SM -SN BR OVC007
     FM240900 05018G26KT 2SM -SNPL OVC015 WS015/07045KT PROB30
      2414/2415 1SM -FZRA OVC003
     FM241700 04015G23KT 3SM RA OVC007=

USA.gov is the U.S. government's official web portal to all federal, state and local government web resources and services.